createdAt,value
2022-09-25T00:01:14.859Z,29.63
2022-09-25T00:03:43.093Z,25.17
2022-09-25T00:06:16.215Z,28.47
2022-09-25T00:08:44.368Z,36.17
2022-09-25T00:11:14.050Z,31.80
2022-09-25T00:13:42.720Z,34.00
2022-09-25T00:16:12.425Z,31.60
2022-09-25T00:18:57.960Z,34.63
2022-09-25T00:21:31.654Z,34.47
2022-09-25T00:24:00.380Z,30.53
2022-09-25T00:26:30.029Z,32.80
2022-09-25T00:28:58.983Z,35.50
2022-09-25T00:31:26.765Z,25.80
2022-09-25T00:33:55.365Z,30.83
2022-09-25T00:36:23.369Z,36.77
2022-09-25T00:38:53.088Z,33.60
2022-09-25T00:41:23.485Z,35.10
2022-09-25T00:43:53.210Z,38.47
2022-09-25T00:46:23.872Z,31.50
2022-09-25T00:48:56.025Z,42.93
2022-09-25T00:51:29.021Z,37.93
2022-09-25T00:54:01.495Z,43.00
2022-09-25T00:56:32.868Z,41.83
2022-09-25T00:59:00.680Z,50.87
2022-09-25T01:01:28.832Z,50.13
2022-09-25T01:03:57.997Z,49.43
2022-09-25T01:06:27.392Z,47.00
2022-09-25T01:08:56.165Z,53.70
2022-09-25T01:11:25.158Z,60.27
2022-09-25T01:13:56.984Z,52.43
2022-09-25T01:16:32.814Z,64.87
2022-09-25T01:19:13.680Z,51.63
2022-09-25T01:21:45.512Z,59.17
2022-09-25T01:24:46.558Z,61.40
2022-09-25T01:27:36.365Z,57.57
2022-09-25T01:30:09.733Z,57.63
2022-09-25T01:32:51.543Z,71.20
2022-09-25T01:35:26.829Z,64.10
2022-09-25T01:37:59.971Z,65.00
2022-09-25T01:40:33.804Z,59.97
2022-09-25T01:43:10.729Z,52.80
2022-09-25T01:45:44.883Z,55.20
2022-09-25T01:48:15.114Z,61.90
2022-09-25T01:50:47.853Z,59.40
2022-09-25T01:53:20.735Z,45.80
2022-09-25T01:55:53.481Z,56.60
2022-09-25T01:58:27.597Z,54.90
2022-09-25T02:01:01.098Z,53.87
2022-09-25T02:03:36.430Z,50.57
2022-09-25T02:06:07.909Z,48.40
2022-09-25T02:08:40.522Z,53.77
2022-09-25T02:11:09.790Z,58.93
2022-09-25T02:13:42.223Z,49.17
2022-09-25T02:16:17.489Z,52.87
2022-09-25T02:19:03.997Z,60.60
2022-09-25T02:21:43.614Z,54.10
2022-09-25T02:24:20.350Z,62.87
2022-09-25T02:26:49.235Z,66.50
2022-09-25T02:29:17.523Z,59.17
2022-09-25T02:31:50.093Z,81.47
2022-09-25T02:34:18.541Z,66.73
2022-09-25T02:36:46.368Z,73.00
2022-09-25T02:39:18.121Z,63.00
2022-09-25T02:41:57.277Z,72.70
2022-09-25T02:44:34.770Z,74.93
2022-09-25T02:47:15.316Z,66.00
2022-09-25T02:49:52.366Z,70.43
2022-09-25T02:52:28.451Z,67.73
2022-09-25T02:55:05.300Z,66.23
2022-09-25T02:57:38.319Z,77.50
2022-09-25T03:00:08.905Z,67.33
2022-09-25T03:02:40.364Z,72.03
2022-09-25T03:05:12.568Z,59.03
2022-09-25T03:07:54.713Z,61.60
2022-09-25T03:10:24.434Z,62.50
2022-09-25T03:12:52.202Z,64.33
2022-09-25T03:15:21.294Z,57.37
2022-09-25T03:17:52.191Z,63.50
2022-09-25T03:20:20.305Z,61.10
2022-09-25T03:22:48.100Z,64.60
2022-09-25T03:25:16.926Z,66.77
2022-09-25T03:27:44.563Z,69.23
2022-09-25T03:30:13.191Z,64.50
2022-09-25T03:32:42.174Z,65.00
2022-09-25T03:35:11.774Z,70.83
2022-09-25T03:37:39.422Z,65.23
2022-09-25T03:40:08.554Z,65.37
2022-09-25T03:42:36.351Z,70.73
2022-09-25T03:45:04.441Z,64.00
2022-09-25T03:47:32.110Z,62.10
2022-09-25T03:50:00.150Z,74.27
2022-09-25T03:52:29.200Z,72.43
2022-09-25T03:54:57.588Z,72.43
2022-09-25T03:57:25.833Z,73.63
2022-09-25T03:59:54.065Z,72.40
2022-09-25T04:02:21.768Z,78.07
2022-09-25T04:04:50.725Z,86.50
2022-09-25T04:07:18.637Z,74.93
2022-09-25T04:09:47.620Z,77.53
2022-09-25T04:12:15.484Z,77.50
2022-09-25T04:14:45.250Z,77.03
2022-09-25T04:17:12.891Z,75.87
2022-09-25T04:19:40.837Z,84.20
2022-09-25T04:22:08.487Z,78.03
2022-09-25T04:24:51.408Z,85.37
2022-09-25T04:27:22.986Z,70.33
2022-09-25T04:29:51.341Z,84.20
2022-09-25T04:32:36.321Z,85.87
2022-09-25T04:35:05.072Z,88.20
2022-09-25T04:37:32.804Z,83.20
2022-09-25T04:40:00.936Z,71.93
2022-09-25T04:42:29.955Z,75.77
2022-09-25T04:44:59.790Z,83.93
2022-09-25T04:47:30.017Z,69.57
2022-09-25T04:49:58.010Z,75.67
2022-09-25T04:52:25.739Z,79.30
2022-09-25T04:54:53.726Z,86.67
2022-09-25T04:57:53.330Z,84.30
2022-09-25T05:00:19.628Z,77.70
2022-09-25T05:02:47.651Z,78.53
2022-09-25T05:05:16.206Z,77.00
2022-09-25T05:07:52.456Z,71.47
2022-09-25T05:10:21.219Z,67.27
2022-09-25T05:12:49.190Z,65.83
2022-09-25T05:15:18.938Z,76.50
2022-09-25T05:17:46.578Z,74.17
2022-09-25T05:20:14.548Z,70.77
2022-09-25T05:22:42.167Z,67.53
2022-09-25T05:25:10.722Z,73.17
2022-09-25T05:27:38.439Z,69.30
2022-09-25T05:30:08.873Z,75.00
2022-09-25T05:32:37.887Z,66.57
2022-09-25T05:35:06.857Z,63.93
2022-09-25T05:37:34.477Z,73.37
2022-09-25T05:40:02.810Z,60.40
2022-09-25T05:42:32.001Z,68.40
2022-09-25T05:45:04.916Z,71.47
2022-09-25T05:47:34.965Z,58.93
2022-09-25T05:50:04.859Z,61.93
2022-09-25T05:52:32.800Z,65.43
2022-09-25T05:55:01.178Z,59.03
2022-09-25T05:57:31.987Z,65.20
2022-09-25T06:00:00.344Z,64.17
2022-09-25T06:02:28.115Z,56.67
2022-09-25T06:04:55.807Z,51.67
2022-09-25T06:07:25.226Z,46.77
2022-09-25T06:09:52.880Z,42.70
2022-09-25T06:12:21.073Z,54.93
2022-09-25T06:14:48.825Z,55.50
2022-09-25T06:17:17.212Z,49.37
2022-09-25T06:19:44.835Z,49.97
2022-09-25T06:22:12.896Z,54.33
2022-09-25T06:24:42.323Z,51.97
2022-09-25T06:27:10.385Z,48.23
2022-09-25T06:29:38.071Z,55.70
2022-09-25T06:32:06.061Z,49.43
2022-09-25T06:34:33.711Z,54.57
2022-09-25T06:37:02.260Z,57.37
2022-09-25T06:39:33.068Z,48.13
2022-09-25T06:42:02.398Z,51.20
2022-09-25T06:44:30.061Z,54.07
2022-09-25T06:46:59.802Z,51.03
2022-09-25T06:49:27.617Z,46.37
2022-09-25T06:51:55.641Z,49.80
2022-09-25T06:54:23.287Z,48.93
2022-09-25T06:56:51.110Z,51.40
2022-09-25T06:59:20.106Z,52.57
2022-09-25T07:01:47.830Z,53.00
2022-09-25T07:04:14.970Z,42.53
2022-09-25T07:06:46.212Z,48.53
2022-09-25T07:09:14.324Z,56.10
2022-09-25T07:11:44.152Z,49.73
2022-09-25T07:14:12.008Z,48.20
2022-09-25T07:16:41.191Z,55.60
2022-09-25T07:19:10.879Z,59.30
2022-09-25T07:21:40.829Z,57.67
2022-09-25T07:24:10.195Z,59.33
2022-09-25T07:26:42.959Z,59.90
2022-09-25T07:29:14.226Z,62.33
2022-09-25T07:31:44.055Z,64.33
2022-09-25T07:34:13.296Z,66.73
2022-09-25T07:36:42.693Z,71.43
2022-09-25T07:39:16.066Z,65.77
2022-09-25T07:41:45.309Z,64.23
2022-09-25T07:44:31.628Z,64.90
2022-09-25T07:47:03.758Z,59.47
2022-09-25T07:49:34.542Z,60.97
2022-09-25T07:52:03.595Z,59.07
2022-09-25T07:54:31.537Z,56.70
2022-09-25T07:56:59.230Z,58.23
2022-09-25T07:59:27.245Z,54.40
2022-09-25T08:01:54.980Z,54.63
2022-09-25T08:04:24.120Z,60.77
2022-09-25T08:06:51.812Z,53.20
2022-09-25T08:09:19.834Z,54.30
2022-09-25T08:11:47.506Z,47.87
2022-09-25T08:14:16.169Z,50.37
2022-09-25T08:16:44.027Z,48.87
2022-09-25T08:19:12.383Z,45.70
2022-09-25T08:21:41.457Z,46.73
2022-09-25T08:24:11.062Z,46.37
2022-09-25T08:26:39.098Z,48.20
2022-09-25T08:29:09.738Z,47.43
2022-09-25T08:31:37.555Z,43.67
2022-09-25T08:34:28.122Z,49.53
2022-09-25T08:36:55.016Z,52.37
2022-09-25T08:39:23.022Z,51.93
2022-09-25T08:41:53.894Z,54.73
2022-09-25T08:44:28.874Z,49.60
2022-09-25T08:47:19.630Z,50.47
2022-09-25T08:49:52.479Z,53.70
2022-09-25T08:52:22.817Z,51.50
2022-09-25T08:54:53.076Z,56.53
2022-09-25T08:57:35.104Z,48.63
2022-09-25T09:00:06.328Z,52.73
2022-09-25T09:02:39.839Z,56.87
2022-09-25T09:05:18.507Z,43.63
2022-09-25T09:07:51.350Z,45.47
2022-09-25T09:10:30.569Z,52.20
2022-09-25T09:13:03.717Z,49.97
2022-09-25T09:15:41.577Z,46.53
2022-09-25T09:18:18.823Z,47.63
2022-09-25T09:20:53.610Z,48.00
2022-09-25T09:23:24.565Z,45.47
2022-09-25T09:26:01.350Z,41.17
2022-09-25T09:28:49.605Z,38.90
2022-09-25T09:31:23.760Z,35.40
2022-09-25T09:34:01.665Z,35.43
2022-09-25T09:36:39.270Z,37.53
2022-09-25T09:39:20.665Z,43.50
2022-09-25T09:42:01.693Z,30.07
2022-09-25T09:44:40.188Z,28.77
2022-09-25T09:47:19.300Z,33.60
2022-09-25T09:49:51.583Z,27.47
2022-09-25T09:52:23.361Z,25.47
2022-09-25T09:54:55.767Z,27.40
2022-09-25T09:57:26.468Z,29.97
2022-09-25T10:00:04.424Z,27.00
2022-09-25T10:02:39.700Z,27.73
2022-09-25T10:05:16.791Z,20.83
2022-09-25T10:07:46.101Z,21.23
2022-09-25T10:10:17.147Z,20.50
2022-09-25T10:12:48.010Z,22.23
2022-09-25T10:15:33.555Z,25.27
2022-09-25T10:18:05.221Z,22.27
2022-09-25T10:20:43.452Z,20.20
2022-09-25T10:23:25.939Z,18.63
2022-09-25T10:25:56.326Z,13.80
2022-09-25T10:28:29.142Z,17.20
2022-09-25T10:30:59.278Z,17.33
2022-09-25T10:33:29.271Z,19.33
2022-09-25T10:35:57.860Z,19.10
2022-09-25T10:38:34.432Z,14.87
2022-09-25T10:41:08.580Z,17.40
2022-09-25T10:43:36.886Z,22.77
2022-09-25T10:46:13.035Z,16.33
2022-09-25T10:48:59.707Z,16.33
2022-09-25T10:51:28.037Z,18.10
2022-09-25T10:54:13.035Z,17.80
2022-09-25T10:56:43.103Z,18.27
2022-09-25T10:59:18.768Z,17.73
2022-09-25T11:01:49.194Z,21.23
2022-09-25T11:04:20.142Z,16.40
2022-09-25T11:06:52.288Z,21.13
2022-09-25T11:09:24.134Z,22.27
2022-09-25T11:12:04.772Z,17.30
2022-09-25T11:14:35.396Z,18.97
2022-09-25T11:17:05.967Z,16.40
2022-09-25T11:19:36.107Z,18.07
2022-09-25T11:22:15.280Z,13.67
2022-09-25T11:25:01.093Z,18.37
2022-09-25T11:27:37.575Z,19.23
2022-09-25T11:30:08.160Z,20.50
2022-09-25T11:32:48.852Z,17.10
2022-09-25T11:35:33.862Z,20.03
2022-09-25T11:38:11.395Z,16.73
2022-09-25T11:41:07.578Z,13.67
2022-09-25T11:43:46.883Z,13.90
2022-09-25T11:46:23.853Z,16.03
2022-09-25T11:49:05.448Z,15.90
2022-09-25T11:51:57.173Z,13.77
2022-09-25T11:54:34.858Z,20.23
2022-09-25T11:57:08.845Z,17.30
2022-09-25T11:59:50.222Z,15.40
2022-09-25T12:02:27.205Z,15.93
2022-09-25T12:05:23.569Z,14.50
2022-09-25T12:08:12.122Z,15.77
2022-09-25T12:10:50.682Z,15.70
2022-09-25T12:13:27.957Z,14.47
2022-09-25T12:16:13.542Z,15.37
2022-09-25T12:18:57.760Z,14.13
2022-09-25T12:21:34.311Z,12.50
2022-09-25T12:24:15.063Z,20.50
2022-09-25T12:26:52.755Z,24.17
2022-09-25T12:29:45.570Z,22.80
2022-09-25T12:32:22.348Z,22.00
2022-09-25T12:35:15.821Z,18.73
2022-09-25T12:37:49.301Z,20.93
2022-09-25T12:40:24.623Z,17.27
2022-09-25T12:42:58.835Z,20.90
2022-09-25T12:45:34.510Z,21.73
2022-09-25T12:48:13.657Z,20.67
2022-09-25T12:50:52.726Z,34.20
2022-09-25T12:53:30.890Z,24.80
2022-09-25T12:56:05.360Z,35.43
2022-09-25T12:58:53.196Z,34.57
2022-09-25T13:01:26.907Z,17.40
2022-09-25T13:04:07.887Z,17.43
2022-09-25T13:06:44.933Z,20.97
2022-09-25T13:09:22.642Z,16.13
2022-09-25T13:11:57.317Z,22.70
2022-09-25T13:14:35.188Z,30.77
2022-09-25T13:17:03.837Z,13.53
2022-09-25T13:19:35.169Z,13.93
2022-09-25T13:22:06.746Z,14.53
2022-09-25T13:24:46.797Z,12.20
2022-09-25T13:27:22.158Z,7.97
2022-09-25T13:29:59.414Z,9.20
2022-09-25T13:32:31.817Z,8.90
2022-09-25T13:35:04.431Z,9.40
2022-09-25T13:37:34.233Z,7.57
2022-09-25T13:40:26.967Z,6.50
2022-09-25T13:42:55.300Z,6.60
2022-09-25T13:45:34.322Z,6.10
2022-09-25T13:48:07.950Z,12.03
2022-09-25T13:50:43.548Z,9.07
2022-09-25T13:53:21.403Z,11.70
2022-09-25T13:56:20.038Z,9.33
2022-09-25T13:59:22.436Z,7.10
2022-09-25T14:02:24.848Z,7.90
2022-09-25T14:04:52.993Z,7.50
2022-09-25T14:07:25.850Z,8.90
2022-09-25T14:09:56.954Z,6.33
2022-09-25T14:12:30.084Z,9.97
2022-09-25T14:15:02.251Z,11.77
2022-09-25T14:17:33.234Z,11.37
2022-09-25T14:20:05.995Z,12.63
2022-09-25T14:22:44.562Z,8.43
2022-09-25T14:25:28.511Z,10.77
2022-09-25T14:27:56.330Z,10.93
2022-09-25T14:30:29.170Z,8.07
2022-09-25T14:33:17.937Z,5.63
2022-09-25T14:35:55.374Z,6.30
2022-09-25T14:38:54.387Z,6.13
2022-09-25T14:41:48.146Z,6.97
2022-09-25T14:44:26.666Z,5.37
2022-09-25T14:46:56.486Z,4.77
2022-09-25T14:49:27.098Z,5.67
2022-09-25T14:51:57.016Z,4.73
2022-09-25T14:54:29.949Z,6.77
2022-09-25T14:56:59.274Z,5.40
2022-09-25T14:59:32.977Z,4.27
2022-09-25T15:02:02.988Z,4.50
2022-09-25T15:04:34.149Z,5.87
2022-09-25T15:07:10.358Z,4.53
2022-09-25T15:09:47.571Z,5.47
2022-09-25T15:12:21.879Z,6.00
2022-09-25T15:15:04.162Z,7.30
2022-09-25T15:17:32.845Z,6.40
2022-09-25T15:20:04.085Z,8.70
2022-09-25T15:22:35.229Z,5.90
2022-09-25T15:25:07.911Z,6.73
2022-09-25T15:27:42.441Z,5.17
2022-09-25T15:30:15.969Z,5.27
2022-09-25T15:32:48.013Z,11.23
2022-09-25T15:35:19.785Z,5.33
2022-09-25T15:37:48.830Z,8.13
2022-09-25T15:40:28.379Z,4.77
2022-09-25T15:42:56.890Z,5.17
2022-09-25T15:45:44.824Z,6.43
2022-09-25T15:48:28.036Z,5.40
2022-09-25T15:50:56.970Z,6.33
2022-09-25T15:53:30.247Z,7.43
2022-09-25T15:56:18.580Z,5.07
2022-09-25T15:58:51.177Z,5.03
2022-09-25T16:01:40.124Z,5.90
2022-09-25T16:04:28.339Z,6.43
2022-09-25T16:06:56.400Z,5.90
2022-09-25T16:09:34.937Z,7.33
2022-09-25T16:12:28.874Z,18.30
2022-09-25T16:14:58.257Z,8.83
2022-09-25T16:17:33.156Z,12.70
2022-09-25T16:20:08.157Z,8.50
2022-09-25T16:22:41.559Z,12.63
2022-09-25T16:25:21.971Z,8.50
2022-09-25T16:27:51.159Z,8.20
2022-09-25T16:30:22.258Z,10.23
2022-09-25T16:32:53.379Z,9.80
2022-09-25T16:35:40.638Z,8.50
2022-09-25T16:38:28.118Z,9.77
2022-09-25T16:41:05.574Z,14.57
2022-09-25T16:43:36.150Z,18.27
2022-09-25T16:46:13.941Z,13.13
2022-09-25T16:48:46.076Z,10.67
2022-09-25T16:51:21.452Z,11.50
2022-09-25T16:53:50.325Z,11.90
2022-09-25T16:56:21.665Z,12.50
2022-09-25T16:58:50.901Z,18.03
2022-09-25T17:01:19.096Z,20.33
2022-09-25T17:03:53.260Z,15.03
2022-09-25T17:06:22.441Z,17.40
2022-09-25T17:08:50.635Z,15.27
2022-09-25T17:11:20.427Z,15.13
2022-09-25T17:13:50.276Z,11.23
2022-09-25T17:16:18.114Z,11.80
2022-09-25T17:18:45.878Z,9.90
2022-09-25T17:21:16.438Z,11.30
2022-09-25T17:23:45.054Z,10.90
2022-09-25T17:26:18.442Z,8.17
2022-09-25T17:28:46.365Z,10.60
2022-09-25T17:31:20.111Z,8.50
2022-09-25T17:33:49.811Z,9.37
2022-09-25T17:36:18.243Z,13.13
2022-09-25T17:38:45.912Z,11.23
2022-09-25T17:41:19.392Z,10.40
2022-09-25T17:43:47.114Z,12.50
2022-09-25T17:46:19.171Z,8.17
2022-09-25T17:48:53.244Z,9.37
2022-09-25T17:51:24.796Z,10.10
2022-09-25T17:53:53.678Z,12.40
2022-09-25T17:56:21.787Z,15.77
2022-09-25T17:58:49.603Z,14.27
2022-09-25T18:01:22.502Z,11.97
2022-09-25T18:03:50.361Z,13.03
2022-09-25T18:06:19.500Z,14.33
2022-09-25T18:08:47.852Z,15.97
2022-09-25T18:11:16.551Z,14.70
2022-09-25T18:13:45.102Z,24.60
2022-09-25T18:16:16.505Z,20.83
2022-09-25T18:19:04.568Z,19.93
2022-09-25T18:21:50.160Z,18.30
2022-09-25T18:24:18.140Z,18.40
2022-09-25T18:26:47.058Z,16.73
2022-09-25T18:29:16.774Z,20.80
2022-09-25T18:31:45.030Z,19.10
2022-09-25T18:34:14.527Z,20.17
2022-09-25T18:36:43.038Z,17.20
2022-09-25T18:39:13.867Z,20.07
2022-09-25T18:41:45.502Z,23.57
2022-09-25T18:44:13.252Z,18.67
2022-09-25T18:46:41.587Z,23.33
2022-09-25T18:49:09.472Z,28.10
2022-09-25T18:51:38.777Z,26.67
2022-09-25T18:54:06.758Z,21.10
2022-09-25T18:56:35.278Z,22.27
2022-09-25T18:59:05.371Z,21.87
2022-09-25T19:01:33.611Z,21.53
2022-09-25T19:04:05.107Z,16.47
2022-09-25T19:06:33.691Z,15.37
2022-09-25T19:09:04.581Z,13.30
2022-09-25T19:11:32.753Z,17.23
2022-09-25T19:14:04.706Z,17.73
2022-09-25T19:16:38.099Z,16.00
2022-09-25T19:19:06.326Z,18.00
2022-09-25T19:21:34.524Z,18.80
2022-09-25T19:24:03.894Z,14.00
2022-09-25T19:26:31.925Z,17.60
2022-09-25T19:29:00.956Z,20.10
2022-09-25T19:31:30.147Z,17.77
2022-09-25T19:33:58.311Z,15.60
2022-09-25T19:36:30.814Z,15.70
2022-09-25T19:38:59.509Z,16.20
2022-09-25T19:41:30.698Z,16.27
2022-09-25T19:44:00.513Z,16.90
2022-09-25T19:46:30.064Z,15.87
2022-09-25T19:48:57.786Z,22.60
2022-09-25T19:51:27.181Z,19.90
2022-09-25T19:53:55.405Z,22.47
2022-09-25T19:56:23.596Z,20.90
2022-09-25T19:58:52.613Z,24.17
2022-09-25T20:01:24.387Z,18.67
2022-09-25T20:03:52.016Z,21.93
2022-09-25T20:06:19.969Z,23.10
2022-09-25T20:08:47.680Z,24.70
2022-09-25T20:11:18.556Z,23.97
2022-09-25T20:13:47.525Z,21.97
2022-09-25T20:16:18.941Z,28.70
2022-09-25T20:18:48.957Z,22.60
2022-09-25T20:21:17.565Z,26.63
2022-09-25T20:23:45.484Z,32.00
2022-09-25T20:26:15.666Z,30.53
2022-09-25T20:28:44.428Z,38.00
2022-09-25T20:31:14.700Z,31.67
2022-09-25T20:33:44.073Z,29.13
2022-09-25T20:36:13.893Z,29.83
2022-09-25T20:38:41.945Z,26.57
2022-09-25T20:41:12.444Z,26.87
2022-09-25T20:43:40.841Z,27.03
2022-09-25T20:46:12.755Z,26.63
2022-09-25T20:48:42.150Z,20.43
2022-09-25T20:51:14.712Z,19.10
2022-09-25T20:53:43.481Z,15.93
2022-09-25T20:56:13.145Z,22.70
2022-09-25T20:58:42.357Z,18.10
2022-09-25T21:01:12.957Z,18.30
2022-09-25T21:03:42.458Z,25.90
2022-09-25T21:06:13.942Z,25.47
2022-09-25T21:08:41.757Z,25.13
2022-09-25T21:11:11.566Z,23.90
2022-09-25T21:13:40.958Z,26.07
2022-09-25T21:16:10.500Z,20.53
2022-09-25T21:18:40.545Z,15.33
2022-09-25T21:21:12.101Z,14.40
2022-09-25T21:23:40.651Z,10.10
2022-09-25T21:26:11.409Z,13.50
2022-09-25T21:28:40.665Z,10.57
2022-09-25T21:31:10.206Z,9.70
2022-09-25T21:33:38.537Z,12.80
2022-09-25T21:36:07.332Z,10.67
2022-09-25T21:38:37.221Z,8.60
2022-09-25T21:41:07.701Z,9.23
2022-09-25T21:43:36.864Z,7.33
2022-09-25T21:46:07.818Z,9.53
2022-09-25T21:48:36.827Z,9.10
2022-09-25T21:51:07.585Z,8.23
2022-09-25T21:53:37.676Z,10.10
2022-09-25T21:56:08.185Z,8.10
2022-09-25T21:58:36.467Z,9.07
2022-09-25T22:01:06.534Z,11.80
2022-09-25T22:03:35.360Z,8.60
2022-09-25T22:06:05.323Z,10.80
2022-09-25T22:08:35.302Z,8.37
2022-09-25T22:11:05.767Z,11.50
2022-09-25T22:13:36.676Z,10.03
2022-09-25T22:16:06.805Z,10.20
2022-09-25T22:18:35.808Z,8.97
2022-09-25T22:21:03.808Z,9.40
2022-09-25T22:23:31.437Z,11.13
2022-09-25T22:26:01.648Z,9.97
2022-09-25T22:28:30.848Z,10.77
2022-09-25T22:30:58.943Z,24.07
2022-09-25T22:33:26.614Z,11.07
2022-09-25T22:36:00.012Z,12.67
2022-09-25T22:38:27.953Z,13.80
2022-09-25T22:40:56.286Z,13.27
2022-09-25T22:43:24.087Z,9.90
2022-09-25T22:45:54.614Z,12.23
2022-09-25T22:48:22.280Z,11.63
2022-09-25T22:50:57.475Z,9.90
2022-09-25T22:53:25.669Z,15.80
2022-09-25T22:55:53.477Z,10.23
2022-09-25T22:58:21.324Z,12.30
2022-09-25T23:00:53.676Z,12.97
2022-09-25T23:03:24.419Z,10.30
2022-09-25T23:05:52.530Z,12.80
2022-09-25T23:08:20.263Z,11.37
2022-09-25T23:11:06.151Z,11.13
2022-09-25T23:13:35.575Z,13.17
2022-09-25T23:16:07.696Z,14.63
2022-09-25T23:18:36.578Z,14.53
2022-09-25T23:21:05.120Z,12.87
2022-09-25T23:23:33.337Z,11.87
2022-09-25T23:26:06.457Z,14.07
2022-09-25T23:28:35.441Z,10.83
2022-09-25T23:31:09.305Z,14.07
2022-09-25T23:33:38.105Z,12.87
2022-09-25T23:36:07.794Z,12.60
2022-09-25T23:38:35.961Z,10.23
2022-09-25T23:41:13.474Z,9.10
2022-09-25T23:43:41.436Z,10.43
2022-09-25T23:46:10.877Z,11.23
2022-09-25T23:48:39.014Z,10.90
2022-09-25T23:51:07.066Z,11.57
2022-09-25T23:53:35.460Z,12.20
2022-09-25T23:56:07.336Z,9.63
2022-09-25T23:58:35.339Z,10.00
